< < Back
Terminal Aerodrome Forecast


Current Version              Previous Versions:   1  2  3  4  5  6  7  8  9  

Terminal Aerodrome Forecast

372
FTUS44 KOHX 202300
TAFCSV
TAF
KCSV 202321Z 2100/2124 33004KT P6SM SCT035
     FM210800 00000KT 4SM BR SCT070
     FM211200 07003KT P6SM FEW250=



Latest METAR

628
SAUS70 KWBC 210200 RRM
MTRCSV
METAR KCSV 210153Z AUTO 03004KT 10SM CLR 02/M03 A3021 RMK AO2 SLP241
T00221033


USA.gov is the U.S. government's official web portal to all federal, state and local government web resources and services.